Time;durP1;ratioP1;P1;durP2;ratioP2;P2;SDS_P1;SDS_P2;PMS_P1;PMS_P2;Temp;Humidity;BMP_temperature;BMP_pressure;BME280_temperature;BME280_humidity;BME280_pressure;Samples;Min_cycle;Max_cycle;Signal;HPM_P1;HPM_P2
2021/12/30 00:01:02;;;;;;;2.13;1.17;;;;;;;11.77;100.00;100344.09;4969775;28;20763;-62
2021/12/30 00:03:30;;;;;;;2.53;1.20;;;;;;;11.73;100.00;100356.00;4970622;28;20215;-63
2021/12/30 00:05:58;;;;;;;2.60;1.43;;;;;;;11.68;100.00;100362.63;4971446;28;20258;-62
2021/12/30 00:08:26;;;;;;;4.13;2.20;;;;;;;11.70;100.00;100368.59;4957039;28;20212;-62
2021/12/30 00:10:54;;;;;;;2.80;1.67;;;;;;;11.68;100.00;100365.28;4967941;28;20228;-61
2021/12/30 00:13:22;;;;;;;3.27;1.40;;;;;;;11.65;100.00;100364.75;4968739;28;20239;-61
2021/12/30 00:15:52;;;;;;;2.73;1.50;;;;;;;11.66;100.00;100382.38;4959424;28;20217;-63
2021/12/30 00:18:20;;;;;;;5.70;1.20;;;;;;;11.63;100.00;100383.50;4988580;28;20210;-60
2021/12/30 00:20:48;;;;;;;2.47;1.30;;;;;;;11.65;100.00;100389.50;4965095;28;20229;-61
2021/12/30 00:23:16;;;;;;;2.80;1.50;;;;;;;11.63;100.00;100388.81;4961725;28;20223;-62
2021/12/30 00:25:44;;;;;;;3.67;1.33;;;;;;;11.64;100.00;100398.44;4965068;28;20337;-62
2021/12/30 00:28:15;;;;;;;2.03;1.30;;;;;;;11.63;100.00;100410.06;4971211;28;20828;-62
2021/12/30 00:30:44;;;;;;;4.03;1.40;;;;;;;11.57;100.00;100402.72;4971815;28;20720;-64
2021/12/30 00:33:14;;;;;;;2.93;1.53;;;;;;;11.60;100.00;100410.41;4970797;28;20226;-62
2021/12/30 00:35:47;;;;;;;3.60;1.20;;;;;;;11.64;100.00;100417.03;4969743;28;20672;-61
2021/12/30 00:38:15;;;;;;;3.13;1.13;;;;;;;11.68;100.00;100421.06;4969627;28;20237;-62
2021/12/30 00:40:43;;;;;;;4.03;1.00;;;;;;;11.66;100.00;100414.25;4973908;28;20648;-64
2021/12/30 00:43:11;;;;;;;2.70;1.00;;;;;;;11.68;100.00;100418.41;4975337;28;20302;-62
2021/12/30 00:45:39;;;;;;;1.87;0.60;;;;;;;11.68;100.00;100431.69;4960543;28;20234;-63
2021/12/30 00:48:07;;;;;;;2.90;1.03;;;;;;;11.70;100.00;100420.88;4970731;28;20711;-62
2021/12/30 00:50:38;;;;;;;4.40;0.80;;;;;;;11.70;100.00;100431.50;4972166;28;20660;-62
2021/12/30 00:53:07;;;;;;;4.03;0.80;;;;;;;11.74;100.00;100447.97;4973925;28;20223;-62
2021/12/30 00:55:35;;;;;;;3.63;0.67;;;;;;;11.75;100.00;100447.03;4975122;28;20217;-64
2021/12/30 00:58:04;;;;;;;4.57;1.20;;;;;;;11.78;100.00;100449.38;4974997;28;20691;-64
2021/12/30 01:00:33;;;;;;;3.63;0.90;;;;;;;11.76;100.00;100457.50;4973675;28;20230;-62
2021/12/30 01:03:01;;;;;;;3.07;1.00;;;;;;;11.78;100.00;100454.69;4971882;28;20215;-61
2021/12/30 01:05:29;;;;;;;2.03;0.60;;;;;;;11.75;100.00;100455.84;4971375;28;20262;-63
2021/12/30 01:07:58;;;;;;;3.97;0.80;;;;;;;11.68;100.00;100452.94;4959845;28;20293;-62
2021/12/30 01:10:27;;;;;;;5.47;1.13;;;;;;;11.73;100.00;100459.59;4974612;28;20262;-63
2021/12/30 01:13:06;;;;;;;6.07;1.10;;;;;;;11.70;100.00;100458.91;4970764;28;20217;-62
2021/12/30 01:15:48;;;;;;;3.57;1.20;;;;;;;11.73;100.00;100470.22;4966555;28;20206;-63
2021/12/30 01:18:29;;;;;;;3.10;0.87;;;;;;;11.76;100.00;100467.28;4973727;28;20668;-63
2021/12/30 01:20:58;;;;;;;4.20;0.90;;;;;;;11.76;100.00;100481.41;4972000;28;20654;-61
2021/12/30 01:23:28;;;;;;;3.60;0.83;;;;;;;11.69;100.00;100488.31;4966375;28;20297;-62
2021/12/30 01:25:56;;;;;;;4.40;0.80;;;;;;;11.75;100.00;100497.50;4974494;28;20242;-63
2021/12/30 01:28:26;;;;;;;2.30;1.20;;;;;;;11.76;100.00;100504.50;4972332;28;20253;-61
2021/12/30 01:30:54;;;;;;;4.70;1.17;;;;;;;11.70;100.00;100506.72;4972493;28;20229;-62
2021/12/30 01:33:22;;;;;;;3.07;0.77;;;;;;;11.68;100.00;100519.34;4972427;28;20222;-63
2021/12/30 01:35:50;;;;;;;1.67;0.80;;;;;;;11.57;100.00;100516.94;4973563;28;20253;-64
2021/12/30 01:38:17;;;;;;;2.83;0.80;;;;;;;11.57;100.00;100526.72;4974929;28;20242;-62
2021/12/30 01:40:49;;;;;;;2.13;0.70;;;;;;;11.56;100.00;100528.53;4972771;28;20265;-63
2021/12/30 01:43:17;;;;;;;5.43;1.10;;;;;;;11.58;100.00;100533.69;4964892;28;20250;-61
2021/12/30 01:45:46;;;;;;;2.13;1.00;;;;;;;11.58;100.00;100539.84;4972275;28;20290;-63
2021/12/30 01:48:14;;;;;;;3.13;1.03;;;;;;;11.53;100.00;100531.47;4957342;28;20223;-62
2021/12/30 01:50:45;;;;;;;3.00;1.00;;;;;;;11.59;100.00;100538.88;4973222;28;20649;-63
2021/12/30 01:53:12;;;;;;;3.30;1.37;;;;;;;11.60;100.00;100532.56;4969753;28;20301;-60
2021/12/30 01:55:41;;;;;;;3.20;0.90;;;;;;;11.55;100.00;100534.81;4972300;28;20206;-62
2021/12/30 01:58:12;;;;;;;6.20;1.70;;;;;;;11.51;100.00;100533.47;4972361;28;20555;-61
2021/12/30 02:00:42;;;;;;;8.33;3.60;;;;;;;11.49;100.00;100529.31;4973151;28;20251;-61
2021/12/30 02:03:10;;;;;;;5.17;2.37;;;;;;;11.48;100.00;100538.25;4973002;28;20436;-62
2021/12/30 02:05:39;;;;;;;5.70;1.43;;;;;;;11.46;100.00;100540.22;4962457;28;20254;-61
2021/12/30 02:08:10;;;;;;;4.60;1.27;;;;;;;11.43;100.00;100541.38;4965491;28;20350;-61
2021/12/30 02:10:40;;;;;;;5.90;1.53;;;;;;;11.42;100.00;100542.34;4968674;28;20315;-61
2021/12/30 02:13:08;;;;;;;5.53;1.20;;;;;;;11.42;100.00;100554.81;4973500;28;20309;-62
2021/12/30 02:15:38;;;;;;;6.00;1.20;;;;;;;11.28;100.00;100546.34;4972226;28;20206;-61
2021/12/30 02:18:06;;;;;;;4.33;1.37;;;;;;;11.22;100.00;100556.75;4965979;28;20221;-62
2021/12/30 02:20:45;;;;;;;4.73;1.20;;;;;;;11.34;100.00;100554.72;4964963;28;20345;-64
2021/12/30 02:23:15;;;;;;;5.57;1.27;;;;;;;11.37;100.00;100552.56;4968572;28;20423;-62
2021/12/30 02:25:43;;;;;;;6.57;1.67;;;;;;;11.29;100.00;100561.31;4972174;28;20248;-60
2021/12/30 02:28:13;;;;;;;5.70;1.30;;;;;;;11.32;100.00;100560.19;4974063;28;20333;-61
2021/12/30 02:30:41;;;;;;;4.40;1.30;;;;;;;11.31;100.00;100554.03;4973431;28;20244;-62
2021/12/30 02:33:10;;;;;;;6.97;1.27;;;;;;;11.44;100.00;100558.94;4970444;28;20221;-62
2021/12/30 02:35:39;;;;;;;6.23;1.13;;;;;;;11.46;100.00;100556.97;4969923;28;20711;-62
2021/12/30 02:38:08;;;;;;;7.67;1.60;;;;;;;11.45;100.00;100560.63;4973685;28;20214;-62
2021/12/30 02:40:39;;;;;;;4.40;1.10;;;;;;;11.51;100.00;100557.38;4974539;28;20304;-61
2021/12/30 02:43:11;;;;;;;3.77;1.17;;;;;;;11.48;100.00;100555.03;4972254;28;20218;-61
2021/12/30 02:45:39;;;;;;;7.27;1.27;;;;;;;11.48;100.00;100565.63;4971445;28;20276;-62
2021/12/30 02:48:12;;;;;;;7.87;1.40;;;;;;;11.55;100.00;100572.00;4972089;28;20661;-62
2021/12/30 02:50:40;;;;;;;7.70;1.60;;;;;;;11.56;100.00;100573.69;4973270;28;20334;-61
2021/12/30 02:53:09;;;;;;;7.03;1.70;;;;;;;11.58;100.00;100571.72;4971187;28;20672;-62
2021/12/30 02:55:37;;;;;;;6.03;1.33;;;;;;;11.59;100.00;100584.00;4970936;28;20554;-61
2021/12/30 02:58:05;;;;;;;7.27;1.67;;;;;;;11.65;100.00;100586.06;4970659;28;20305;-61
2021/12/30 03:00:33;;;;;;;5.97;1.50;;;;;;;11.62;100.00;100578.38;4970229;28;20238;-62
2021/12/30 03:03:01;;;;;;;5.90;1.40;;;;;;;11.62;100.00;100582.84;4968941;28;20234;-61
2021/12/30 03:05:30;;;;;;;6.37;1.50;;;;;;;11.60;100.00;100588.34;4972111;28;20772;-62
2021/12/30 03:07:58;;;;;;;5.20;1.30;;;;;;;11.61;100.00;100587.31;4972283;28;20703;-62
2021/12/30 03:10:28;;;;;;;12.00;1.77;;;;;;;11.62;100.00;100596.13;4970476;28;20211;-61
2021/12/30 03:12:58;;;;;;;7.90;1.60;;;;;;;11.59;100.00;100593.81;4969343;28;20217;-62
2021/12/30 03:15:27;;;;;;;4.47;1.30;;;;;;;11.65;100.00;100594.03;4971833;28;20218;-62
2021/12/30 03:17:55;;;;;;;7.53;1.53;;;;;;;11.70;100.00;100594.38;4958669;28;20778;-61
2021/12/30 03:20:23;;;;;;;6.40;1.50;;;;;;;11.75;100.00;100598.44;4960159;28;20302;-62
2021/12/30 03:22:50;;;;;;;5.80;1.23;;;;;;;11.77;100.00;100583.19;4966313;28;20302;-60
2021/12/30 03:25:18;;;;;;;4.80;1.50;;;;;;;11.80;100.00;100590.84;4971039;28;20700;-61
2021/12/30 03:27:47;;;;;;;6.57;1.67;;;;;;;11.79;100.00;100584.69;4970242;28;20262;-61
2021/12/30 03:30:17;;;;;;;4.73;1.40;;;;;;;11.78;100.00;100582.22;4972683;28;20747;-59
2021/12/30 03:32:46;;;;;;;7.97;2.00;;;;;;;11.82;100.00;100579.09;4971241;28;20705;-60
2021/12/30 03:35:14;;;;;;;4.57;1.50;;;;;;;11.80;100.00;100574.91;4969927;28;20214;-60
2021/12/30 03:37:42;;;;;;;3.47;1.30;;;;;;;11.84;100.00;100566.50;4969329;28;20295;-63
2021/12/30 03:40:14;;;;;;;6.80;1.83;;;;;;;11.83;100.00;100574.59;4972521;28;20210;-62
2021/12/30 03:42:42;;;;;;;4.53;1.50;;;;;;;11.89;100.00;100576.66;4970039;28;20225;-61
2021/12/30 03:45:14;;;;;;;8.67;1.70;;;;;;;11.90;100.00;100581.81;4971511;28;20210;-61
2021/12/30 03:47:45;;;;;;;6.17;1.47;;;;;;;11.93;100.00;100583.34;4969990;28;20226;-60
2021/12/30 03:50:19;;;;;;;4.63;1.70;;;;;;;12.01;100.00;100578.06;4970704;28;20214;-61
2021/12/30 03:52:49;;;;;;;5.57;2.00;;;;;;;11.99;100.00;100578.22;4968856;28;20219;-62
2021/12/30 03:55:17;;;;;;;5.23;1.70;;;;;;;12.06;100.00;100581.09;4972665;28;20306;-61
2021/12/30 03:57:45;;;;;;;6.17;1.80;;;;;;;12.07;100.00;100583.59;4970047;28;20253;-63
2021/12/30 04:00:15;;;;;;;11.50;1.90;;;;;;;12.11;100.00;100589.44;4970224;28;20729;-61
2021/12/30 04:02:43;;;;;;;3.60;1.57;;;;;;;12.11;100.00;100583.31;4967064;28;20215;-61
2021/12/30 04:05:11;;;;;;;5.17;1.93;;;;;;;12.16;100.00;100595.13;4956122;28;20211;-62
2021/12/30 04:07:39;;;;;;;6.20;2.40;;;;;;;12.15;100.00;100588.13;4971545;28;20270;-62
2021/12/30 04:10:13;;;;;;;4.93;1.70;;;;;;;12.18;100.00;100595.81;4969380;28;20358;-62
2021/12/30 04:12:41;;;;;;;6.00;1.90;;;;;;;12.20;100.00;100590.34;4969250;28;20219;-62
2021/12/30 04:15:10;;;;;;;5.53;1.63;;;;;;;12.24;100.00;100595.19;4968718;28;20250;-62
2021/12/30 04:17:39;;;;;;;7.00;2.10;;;;;;;12.22;100.00;100591.88;4972066;28;20691;-62
2021/12/30 04:20:10;;;;;;;5.07;1.80;;;;;;;12.29;100.00;100592.91;4972150;28;20210;-62
2021/12/30 04:22:39;;;;;;;3.83;1.67;;;;;;;12.28;100.00;100591.25;4964066;28;20300;-62
2021/12/30 04:25:10;;;;;;;6.43;1.50;;;;;;;12.31;100.00;100596.22;4966885;28;20234;-61
2021/12/30 04:27:37;;;;;;;6.20;1.37;;;;;;;12.34;100.00;100592.44;4968327;28;20239;-62
2021/12/30 04:30:08;;;;;;;2.50;1.40;;;;;;;12.32;100.00;100592.56;4971053;28;20637;-63
2021/12/30 04:32:36;;;;;;;5.27;1.53;;;;;;;12.31;100.00;100596.22;4972876;28;20252;-62
2021/12/30 04:35:07;;;;;;;3.47;1.20;;;;;;;12.36;100.00;100604.59;4971688;28;20644;-62
2021/12/30 04:37:35;;;;;;;4.27;1.10;;;;;;;12.36;100.00;100604.59;4969352;28;20314;-61
2021/12/30 04:40:05;;;;;;;3.30;1.07;;;;;;;12.39;100.00;100617.56;4968424;28;20661;-61
2021/12/30 04:42:33;;;;;;;2.33;1.17;;;;;;;12.39;100.00;100620.25;4969194;28;20305;-61
2021/12/30 04:45:01;;;;;;;3.40;0.97;;;;;;;12.44;100.00;100617.09;4971746;28;20250;-61
2021/12/30 04:47:29;;;;;;;7.27;1.57;;;;;;;12.39;100.00;100620.25;4970378;28;20270;-62
2021/12/30 04:49:57;;;;;;;2.83;1.20;;;;;;;12.32;100.00;100624.47;4969436;28;20311;-62
2021/12/30 04:52:27;;;;;;;3.70;1.20;;;;;;;12.37;100.00;100626.69;4963447;28;20316;-62
2021/12/30 04:54:55;;;;;;;1.70;0.90;;;;;;;12.40;100.00;100627.19;4956793;28;20882;-62
2021/12/30 04:57:23;;;;;;;1.97;0.90;;;;;;;12.42;100.00;100624.38;4971352;28;20242;-62
2021/12/30 04:59:51;;;;;;;2.33;0.90;;;;;;;12.43;100.00;100632.22;4970746;28;20242;-62
2021/12/30 05:02:19;;;;;;;0.83;0.60;;;;;;;12.43;100.00;100632.22;4969063;28;20230;-61
2021/12/30 05:04:46;;;;;;;2.37;0.80;;;;;;;12.46;100.00;100630.25;4969523;28;20219;-61
2021/12/30 05:07:14;;;;;;;1.53;0.53;;;;;;;12.49;100.00;100624.63;4969681;28;20615;-59
2021/12/30 05:09:43;;;;;;;2.57;0.60;;;;;;;12.48;100.00;100629.09;4970757;28;20243;-60
2021/12/30 05:12:11;;;;;;;2.07;0.50;;;;;;;12.52;100.00;100629.59;4959688;28;20235;-63
2021/12/30 05:14:38;;;;;;;1.80;0.57;;;;;;;12.49;100.00;100620.09;4970103;28;20240;-61
2021/12/30 05:17:06;;;;;;;1.80;0.63;;;;;;;12.47;100.00;100621.28;4969635;28;20343;-63
2021/12/30 05:19:34;;;;;;;4.00;0.60;;;;;;;12.53;100.00;100610.00;4970050;28;20607;-63
2021/12/30 05:22:02;;;;;;;2.60;0.70;;;;;;;12.56;100.00;100625.66;4953285;28;20216;-61
2021/12/30 05:24:30;;;;;;;1.60;0.60;;;;;;;12.61;100.00;100623.34;4970348;28;20252;-62
2021/12/30 05:26:59;;;;;;;1.30;0.60;;;;;;;12.63;100.00;100619.53;4967382;28;20270;-63
2021/12/30 05:29:27;;;;;;;1.63;0.63;;;;;;;12.64;100.00;100639.00;4972578;28;20216;-61
2021/12/30 05:31:55;;;;;;;0.67;0.40;;;;;;;12.67;100.00;100638.66;4974621;28;20217;-62
2021/12/30 05:34:22;;;;;;;0.53;0.37;;;;;;;12.66;100.00;100647.66;4972063;28;20640;-63
2021/12/30 05:36:50;;;;;;;1.63;0.43;;;;;;;12.72;100.00;100644.38;4973240;28;20300;-63
2021/12/30 05:39:18;;;;;;;1.77;0.27;;;;;;;12.73;100.00;100646.03;4972843;28;20218;-62
2021/12/30 05:41:46;;;;;;;0.40;0.30;;;;;;;12.75;100.00;100642.22;4973375;28;20216;-62
2021/12/30 05:44:15;;;;;;;0.57;0.23;;;;;;;12.78;100.00;100646.38;4972406;28;20305;-62
2021/12/30 05:46:43;;;;;;;0.30;0.20;;;;;;;12.77;100.00;100650.03;4974590;28;20248;-61
2021/12/30 05:49:11;;;;;;;0.77;0.33;;;;;;;12.78;100.00;100652.56;4972733;28;20235;-61
2021/12/30 05:51:41;;;;;;;0.83;0.20;;;;;;;12.78;100.00;100651.72;4973894;28;20216;-61
2021/12/30 05:54:09;;;;;;;0.93;0.30;;;;;;;12.80;100.00;100655.06;4971169;28;20324;-62
2021/12/30 05:56:37;;;;;;;0.67;0.30;;;;;;;12.79;100.00;100654.22;4972267;28;20215;-62
2021/12/30 05:59:04;;;;;;;0.50;0.30;;;;;;;12.83;100.00;100649.44;4974341;28;20304;-62
2021/12/30 06:01:33;;;;;;;0.40;0.20;;;;;;;12.85;100.00;100658.06;4971205;28;20225;-61
2021/12/30 06:04:03;;;;;;;0.40;0.20;;;;;;;12.86;100.00;100661.56;4971958;28;20299;-61
2021/12/30 06:06:31;;;;;;;0.70;0.20;;;;;;;12.87;100.00;100666.72;4972533;28;20213;-63
2021/12/30 06:08:59;;;;;;;0.30;0.27;;;;;;;12.93;100.00;100675.94;4971912;28;20319;-62
2021/12/30 06:11:26;;;;;;;2.63;0.30;;;;;;;12.90;100.00;100671.75;4959168;28;20217;-61
2021/12/30 06:13:54;;;;;;;0.77;0.37;;;;;;;12.91;100.00;100676.09;4970079;28;20221;-62
2021/12/30 06:16:22;;;;;;;0.40;0.30;;;;;;;12.95;100.00;100680.09;4971761;28;20225;-60
2021/12/30 06:18:51;;;;;;;0.67;0.40;;;;;;;12.94;100.00;100686.41;4972180;28;20857;-61
2021/12/30 06:21:18;;;;;;;1.17;0.20;;;;;;;12.95;100.00;100685.41;4973575;28;20292;-62
2021/12/30 06:23:46;;;;;;;0.67;0.20;;;;;;;12.96;100.00;100695.06;4973051;28;20221;-62
2021/12/30 06:26:14;;;;;;;3.53;0.30;;;;;;;13.02;100.00;100704.22;4961050;28;20558;-62
2021/12/30 06:28:42;;;;;;;1.90;0.20;;;;;;;13.05;100.00;100696.78;4967444;28;20786;-62
2021/12/30 06:31:09;;;;;;;0.50;0.20;;;;;;;13.08;100.00;100706.28;4972099;28;20213;-61
2021/12/30 06:33:39;;;;;;;2.33;0.20;;;;;;;13.10;100.00;100699.81;4970299;28;20629;-61
2021/12/30 06:36:08;;;;;;;3.40;0.20;;;;;;;13.10;100.00;100699.81;4974284;28;20308;-61
2021/12/30 06:38:36;;;;;;;0.83;0.20;;;;;;;13.09;100.00;100692.81;4971266;28;20723;-61
2021/12/30 06:41:05;;;;;;;0.30;0.20;;;;;;;13.11;100.00;100704.13;4975750;28;20220;-61
2021/12/30 06:43:32;;;;;;;0.60;0.30;;;;;;;13.13;100.00;100702.16;4979370;28;20316;-60
2021/12/30 06:46:01;;;;;;;0.20;0.20;;;;;;;13.15;100.00;100707.34;4955914;28;20241;-61
2021/12/30 06:48:29;;;;;;;0.30;0.30;;;;;;;13.14;100.00;100711.84;4972862;28;20237;-63
2021/12/30 06:50:59;;;;;;;0.50;0.10;;;;;;;13.18;100.00;100717.69;4970711;28;20228;-61
2021/12/30 06:53:28;;;;;;;0.60;0.20;;;;;;;13.18;100.00;100715.88;4970316;28;20214;-62
2021/12/30 06:55:56;;;;;;;0.27;0.20;;;;;;;13.22;100.00;100720.84;4960713;28;20222;-62
2021/12/30 06:58:24;;;;;;;1.03;0.20;;;;;;;13.20;100.00;100726.31;4972701;28;20212;-62
2021/12/30 07:00:52;;;;;;;0.40;0.30;;;;;;;13.22;100.00;100728.84;4972077;28;20218;-61
2021/12/30 07:03:20;;;;;;;0.60;0.40;;;;;;;13.22;100.00;100728.84;4958936;28;20215;-62
2021/12/30 07:05:48;;;;;;;0.97;0.20;;;;;;;13.26;100.00;100730.22;4964734;28;20316;-62
2021/12/30 07:08:15;;;;;;;0.83;0.20;;;;;;;13.24;100.00;100743.69;4970030;28;20691;-62
2021/12/30 07:10:45;;;;;;;0.87;0.30;;;;;;;13.26;100.00;100748.84;4962505;28;20237;-62
2021/12/30 07:13:13;;;;;;;0.73;0.43;;;;;;;13.24;100.00;100751.66;4973063;28;20304;-61
2021/12/30 07:15:40;;;;;;;0.20;0.10;;;;;;;13.27;100.00;100750.53;4970946;28;20217;-61
2021/12/30 07:18:08;;;;;;;0.33;0.17;;;;;;;13.29;100.00;100756.50;4970369;28;20257;-61
2021/12/30 07:20:36;;;;;;;0.47;0.30;;;;;;;13.30;100.00;100752.84;4970952;28;20219;-62
2021/12/30 07:23:04;;;;;;;0.20;0.20;;;;;;;13.28;100.00;100755.66;4970113;28;20249;-61
2021/12/30 07:25:32;;;;;;;2.23;0.20;;;;;;;13.28;100.00;100754.84;4971209;28;20262;-62
2021/12/30 07:28:01;;;;;;;0.73;0.30;;;;;;;13.29;100.00;100767.16;4968799;28;20239;-60
2021/12/30 07:30:29;;;;;;;0.60;0.30;;;;;;;13.32;100.00;100767.69;4971400;28;20301;-62
2021/12/30 07:32:57;;;;;;;1.07;0.20;;;;;;;13.31;100.00;100765.16;4970588;28;20228;-62
2021/12/30 07:35:26;;;;;;;0.27;0.27;;;;;;;13.29;100.00;100767.16;4955538;28;20293;-62
2021/12/30 07:37:54;;;;;;;2.23;0.30;;;;;;;13.33;100.00;100757.88;4973615;28;20218;-62
2021/12/30 07:40:22;;;;;;;0.63;0.47;;;;;;;13.27;100.00;100769.16;4971845;28;20236;-63
2021/12/30 07:42:50;;;;;;;1.17;0.30;;;;;;;13.30;100.00;100774.16;4969887;28;20218;-62
2021/12/30 07:45:19;;;;;;;1.10;0.37;;;;;;;13.29;100.00;100772.47;4971344;28;20236;-62
2021/12/30 07:47:50;;;;;;;0.53;0.40;;;;;;;13.32;100.00;100786.31;4953143;28;20211;-62
2021/12/30 07:50:19;;;;;;;0.67;0.40;;;;;;;13.31;100.00;100789.16;4971204;28;20706;-62
2021/12/30 07:52:46;;;;;;;0.40;0.30;;;;;;;13.31;100.00;100797.13;4968758;28;20318;-62
2021/12/30 07:55:15;;;;;;;1.43;0.63;;;;;;;13.33;100.00;100793.31;4968508;28;20216;-62
2021/12/30 07:57:43;;;;;;;1.20;0.50;;;;;;;13.35;100.00;100801.16;4970507;28;20219;-62
2021/12/30 08:00:14;;;;;;;0.87;0.57;;;;;;;13.37;100.00;100796.53;4971756;28;20309;-62
2021/12/30 08:02:44;;;;;;;1.83;0.60;;;;;;;13.40;100.00;100806.84;4970563;28;20270;-63
2021/12/30 08:05:13;;;;;;;1.60;0.97;;;;;;;13.45;100.00;100813.38;4969600;28;20217;-62
2021/12/30 08:07:42;;;;;;;1.50;0.60;;;;;;;13.45;100.00;100821.38;4968631;28;20241;-62
2021/12/30 08:10:14;;;;;;;1.50;0.73;;;;;;;13.44;100.00;100814.38;4969821;28;20609;-62
2021/12/30 08:12:43;;;;;;;2.00;0.90;;;;;;;13.46;100.00;100822.19;4969987;28;20250;-61
2021/12/30 08:15:13;;;;;;;2.57;0.80;;;;;;;13.48;100.00;100829.03;4970050;28;20447;-62
2021/12/30 08:17:42;;;;;;;2.27;0.80;;;;;;;13.48;100.00;100820.19;4969561;28;20245;-62
2021/12/30 08:20:15;;;;;;;2.53;0.83;;;;;;;13.51;100.00;100830.56;4969480;28;20206;-60
2021/12/30 08:22:43;;;;;;;0.93;0.70;;;;;;;13.54;100.00;100830.25;4968977;28;20622;-62
2021/12/30 08:25:13;;;;;;;1.07;0.53;;;;;;;13.56;100.00;100821.09;4969353;28;20270;-62
2021/12/30 08:27:42;;;;;;;3.87;0.60;;;;;;;13.58;100.00;100812.94;4970818;28;20325;-61
2021/12/30 08:30:12;;;;;;;3.00;0.70;;;;;;;13.60;100.00;100813.63;4967603;28;20653;-62
2021/12/30 08:32:40;;;;;;;0.73;0.50;;;;;;;13.60;100.00;100808.28;4968230;28;20238;-62
2021/12/30 08:35:12;;;;;;;1.10;0.60;;;;;;;13.66;100.00;100812.97;4967837;28;20228;-63
2021/12/30 08:37:39;;;;;;;1.27;0.80;;;;;;;13.69;100.00;100814.50;4968969;28;20219;-62
2021/12/30 08:40:09;;;;;;;1.57;0.63;;;;;;;13.74;100.00;100815.66;4971334;28;20256;-63
2021/12/30 08:42:38;;;;;;;0.87;0.63;;;;;;;13.78;100.00;100816.19;4973695;28;20224;-64
2021/12/30 08:45:08;;;;;;;1.33;0.57;;;;;;;13.79;100.00;100818.72;4971142;28;20222;-62
2021/12/30 08:47:36;;;;;;;1.40;0.63;;;;;;;13.83;100.00;100817.38;4972959;28;20249;-62
2021/12/30 08:50:06;;;;;;;1.10;0.70;;;;;;;13.87;100.00;100813.41;4955756;28;20234;-61
2021/12/30 08:52:35;;;;;;;1.57;0.63;;;;;;;13.88;100.00;100817.75;4970449;28;20211;-61
2021/12/30 08:55:04;;;;;;;1.50;0.40;;;;;;;13.88;100.00;100823.06;4970686;28;20256;-63
2021/12/30 08:57:34;;;;;;;2.87;0.77;;;;;;;13.84;100.00;100827.03;4969705;28;20657;-61
2021/12/30 09:00:05;;;;;;;1.50;0.90;;;;;;;13.87;100.00;100832.06;4968625;28;20347;-63
2021/12/30 09:02:33;;;;;;;2.07;0.80;;;;;;;13.88;100.00;100825.75;4971435;28;20218;-62
2021/12/30 09:05:00;;;;;;;1.60;0.90;;;;;;;13.88;100.00;100832.91;4973799;28;20303;-60
2021/12/30 09:07:28;;;;;;;1.40;0.60;;;;;;;13.87;100.00;100831.22;4971661;28;20214;-63
2021/12/30 09:09:58;;;;;;;1.37;0.70;;;;;;;13.88;100.00;100833.75;4972564;28;20756;-63
2021/12/30 09:12:26;;;;;;;1.07;0.70;;;;;;;13.92;100.00;100839.56;4971677;28;20244;-61
2021/12/30 09:15:16;;;;;;;1.17;0.70;;;;;;;13.91;100.00;100844.06;4971086;28;20217;-62
2021/12/30 09:17:46;;;;;;;1.40;0.90;;;;;;;13.90;100.00;100847.72;4974431;28;20242;-63
2021/12/30 09:20:15;;;;;;;2.97;0.90;;;;;;;13.95;100.00;100852.59;4973749;28;20206;-62
2021/12/30 09:22:43;;;;;;;1.40;0.80;;;;;;;13.97;100.00;100858.59;4972432;28;20249;-62
2021/12/30 09:25:13;;;;;;;2.07;1.00;;;;;;;13.92;100.00;100859.06;4971450;28;20231;-62
2021/12/30 09:27:42;;;;;;;1.67;0.83;;;;;;;13.98;100.00;100872.75;4971864;28;20273;-64
2021/12/30 09:30:12;;;;;;;1.27;0.90;;;;;;;13.98;100.00;100876.28;4974002;28;20233;-64
2021/12/30 09:32:40;;;;;;;1.00;0.70;;;;;;;13.96;100.00;100882.75;4970493;28;20229;-63
2021/12/30 09:35:10;;;;;;;2.67;0.80;;;;;;;13.99;100.00;100893.91;4973376;28;20317;-62
2021/12/30 09:37:39;;;;;;;1.00;0.73;;;;;;;14.02;100.00;100895.44;4972356;28;20211;-63
2021/12/30 09:40:10;;;;;;;1.17;0.60;;;;;;;13.99;100.00;100898.41;4972900;28;20228;-62
2021/12/30 09:42:40;;;;;;;1.50;0.77;;;;;;;13.97;100.00;100897.75;4973696;28;20297;-62
2021/12/30 09:45:11;;;;;;;1.23;0.60;;;;;;;13.98;100.00;100907.44;4963511;28;20257;-62
2021/12/30 09:47:43;;;;;;;1.73;0.90;;;;;;;13.99;100.00;100903.75;4971648;28;20691;-61
2021/12/30 09:50:11;;;;;;;1.33;0.80;;;;;;;14.04;100.00;100901.44;4971999;28;20230;-65
2021/12/30 09:52:39;;;;;;;0.97;0.50;;;;;;;14.07;100.00;100903.81;4971273;28;20692;-62
2021/12/30 09:55:09;;;;;;;0.77;0.50;;;;;;;14.08;100.00;100905.44;4974028;28;20215;-63
2021/12/30 09:57:37;;;;;;;1.77;0.90;;;;;;;14.07;100.00;100906.47;4973194;28;20306;-61
2021/12/30 10:00:09;;;;;;;2.37;0.60;;;;;;;14.06;100.00;100900.31;4970295;28;20206;-61
2021/12/30 10:02:37;;;;;;;1.30;0.60;;;;;;;14.10;100.00;100906.13;4969839;28;20215;-62
2021/12/30 10:05:11;;;;;;;1.57;0.70;;;;;;;14.06;100.00;100910.13;4971745;28;20637;-63
2021/12/30 10:07:41;;;;;;;1.73;0.87;;;;;;;14.14;100.00;100911.00;4973264;28;20907;-62
2021/12/30 10:10:33;;;;;;;1.80;0.50;;;;;;;14.16;100.00;100900.97;4972744;28;20579;-63
2021/12/30 10:13:14;;;;;;;2.07;0.60;;;;;;;14.17;100.00;100901.81;4971896;28;20230;-63
2021/12/30 10:15:46;;;;;;;2.83;0.80;;;;;;;14.20;100.00;100904.19;4971632;28;20284;-64
2021/12/30 10:18:14;;;;;;;1.47;0.60;;;;;;;14.22;100.00;100904.84;4967756;28;20215;-64
2021/12/30 10:20:42;;;;;;;1.30;0.60;;;;;;;14.25;100.00;100907.19;4970021;28;20203;-62
2021/12/30 10:23:12;;;;;;;1.27;0.70;;;;;;;14.25;100.00;100908.03;4966462;28;20301;-61
2021/12/30 10:25:42;;;;;;;1.67;0.80;;;;;;;14.29;100.00;100911.22;4956122;28;20768;-62
2021/12/30 10:28:40;;;;;;;1.10;0.57;;;;;;;14.30;100.00;100905.72;4969697;28;20309;-65
2021/12/30 10:31:23;;;;;;;0.97;0.67;;;;;;;14.31;100.00;100904.72;4928345;28;20688;-60
2021/12/30 10:33:55;;;;;;;1.07;0.60;;;;;;;14.32;100.00;100897.56;4968820;28;20273;-60
2021/12/30 10:36:25;;;;;;;1.03;0.63;;;;;;;14.37;100.00;100891.72;4969666;28;20629;-62
2021/12/30 10:38:54;;;;;;;1.33;0.77;;;;;;;14.35;100.00;100899.88;4970071;28;20302;-61
2021/12/30 10:41:24;;;;;;;1.97;0.60;;;;;;;14.37;100.00;100891.72;4972555;28;20207;-62
2021/12/30 10:43:54;;;;;;;1.20;0.50;;;;;;;14.39;100.00;100903.13;4971434;28;20707;-63
2021/12/30 10:46:25;;;;;;;4.00;0.77;;;;;;;14.44;100.00;100903.44;4971294;28;20242;-62
2021/12/30 10:48:58;;;;;;;1.50;0.70;;;;;;;14.46;100.00;100909.47;4970603;28;20252;-64
2021/12/30 10:51:34;;;;;;;1.10;0.60;;;;;;;14.47;100.00;100913.81;4971764;28;20222;-65
2021/12/30 10:54:16;;;;;;;0.90;0.70;;;;;;;14.50;100.00;100906.31;4971567;28;20206;-63
2021/12/30 10:56:48;;;;;;;1.23;0.60;;;;;;;14.52;100.00;100901.63;4972337;28;20206;-62
2021/12/30 10:59:23;;;;;;;1.27;0.70;;;;;;;14.55;100.00;100911.16;4958397;28;20222;-63
2021/12/30 11:01:56;;;;;;;0.83;0.60;;;;;;;14.60;100.00;100914.19;4967971;28;20207;-62
2021/12/30 11:04:36;;;;;;;3.87;0.80;;;;;;;14.58;100.00;100927.69;4971289;28;20868;-62
2021/12/30 11:07:05;;;;;;;2.03;0.70;;;;;;;14.57;100.00;100931.34;4969199;28;20292;-64
2021/12/30 11:09:33;;;;;;;1.17;0.60;;;;;;;14.54;100.00;100933.50;4972020;28;20305;-63
2021/12/30 11:12:05;;;;;;;1.43;0.80;;;;;;;14.58;100.00;100930.34;4987389;28;20229;-64
2021/12/30 11:14:39;;;;;;;2.37;0.60;;;;;;;14.59;100.00;100929.38;4970338;28;20210;-62
2021/12/30 11:17:13;;;;;;;1.90;0.80;;;;;;;14.64;100.00;100937.72;4971008;28;20214;-61
2021/12/30 11:19:51;;;;;;;0.93;0.70;;;;;;;14.67;100.00;100931.22;4970110;28;20246;-61
2021/12/30 11:22:21;;;;;;;2.50;0.70;;;;;;;14.69;100.00;100932.69;4969436;28;20648;-64
2021/12/30 11:24:52;;;;;;;1.17;0.60;;;;;;;14.74;100.00;100928.72;4970909;28;20257;-65
2021/12/30 11:27:21;;;;;;;0.80;0.50;;;;;;;14.75;100.00;100928.56;4971880;28;20623;-62